Time;durP1;ratioP1;P1;durP2;ratioP2;P2;SDS_P1;SDS_P2;PMS_P1;PMS_P2;Temp;Humidity;BMP_temperature;BMP_pressure;BME280_temperature;BME280_humidity;BME280_pressure;Samples;Min_cycle;Max_cycle;Signal;HPM_P1;HPM_P2
2020/12/07 00:00:15;;;;;;;68.30;32.63;;;;;;;3.51;86.03;98939.28;5042123;28;20218;-66
2020/12/07 00:02:41;;;;;;;74.23;35.30;;;;;;;3.49;85.60;98940.22;5033757;28;20663;-66
2020/12/07 00:05:08;;;;;;;70.40;35.40;;;;;;;3.50;85.32;98927.91;5026611;28;20268;-66
2020/12/07 00:07:35;;;;;;;75.00;35.73;;;;;;;3.52;86.16;98925.19;5030872;28;20231;-66
2020/12/07 00:10:02;;;;;;;65.77;33.93;;;;;;;3.49;85.38;98921.78;5033463;28;20228;-66
2020/12/07 00:12:29;;;;;;;70.80;35.07;;;;;;;3.51;85.87;98919.06;5033035;28;20202;-66
2020/12/07 00:14:56;;;;;;;73.93;34.33;;;;;;;3.52;85.79;98919.91;5033660;28;20206;-66
2020/12/07 00:17:22;;;;;;;70.43;35.10;;;;;;;3.52;86.10;98922.53;5034390;28;20300;-67
2020/12/07 00:19:49;;;;;;;72.23;35.53;;;;;;;3.52;86.19;98909.38;5033712;28;20725;-67
2020/12/07 00:22:20;;;;;;;75.47;35.17;;;;;;;3.52;86.06;98906.75;5032381;28;20568;-66
2020/12/07 00:24:47;;;;;;;67.50;33.03;;;;;;;3.53;86.10;98900.56;5034068;28;20220;-67
2020/12/07 00:27:13;;;;;;;66.07;34.30;;;;;;;3.54;85.77;98894.34;5033856;28;20210;-66
2020/12/07 00:29:39;;;;;;;67.83;33.37;;;;;;;3.54;85.52;98886.47;5033993;28;20222;-67
2020/12/07 00:32:05;;;;;;;71.47;33.30;;;;;;;3.55;85.59;98882.88;5031979;28;20228;-66
2020/12/07 00:34:31;;;;;;;69.40;33.97;;;;;;;3.55;86.13;98882.88;5033717;28;20287;-67
2020/12/07 00:36:57;;;;;;;65.80;32.97;;;;;;;3.54;85.84;98896.97;5034147;28;20211;-67
2020/12/07 00:39:23;;;;;;;68.23;33.90;;;;;;;3.54;86.16;98903.09;5033017;28;20608;-67
2020/12/07 00:41:50;;;;;;;68.20;32.57;;;;;;;3.53;85.67;98903.19;5033157;28;20206;-66
2020/12/07 00:44:16;;;;;;;68.50;33.03;;;;;;;3.52;85.52;98904.13;5033176;28;20210;-66
2020/12/07 00:46:42;;;;;;;65.00;33.97;;;;;;;3.54;86.37;98899.63;5033604;28;20206;-67
2020/12/07 00:49:08;;;;;;;64.10;32.73;;;;;;;3.53;86.25;98905.81;5033763;28;20244;-67
2020/12/07 00:51:34;;;;;;;57.40;31.60;;;;;;;3.53;85.57;98898.78;5019250;28;20199;-66
2020/12/07 00:54:00;;;;;;;64.33;33.63;;;;;;;3.54;85.89;98886.47;5033941;28;20210;-67
2020/12/07 00:56:26;;;;;;;68.53;32.37;;;;;;;3.53;86.25;98884.75;5032789;28;20229;-66
2020/12/07 00:58:53;;;;;;;62.57;31.73;;;;;;;3.54;85.62;98881.19;5031741;28;20230;-67
2020/12/07 01:01:19;;;;;;;64.20;31.60;;;;;;;3.54;85.72;98883.81;5031406;28;20206;-66
2020/12/07 01:03:45;;;;;;;62.97;31.63;;;;;;;3.52;86.38;98885.69;5032274;28;20212;-66
2020/12/07 01:06:11;;;;;;;63.43;31.67;;;;;;;3.52;86.23;98896.22;5032832;28;20213;-67
2020/12/07 01:08:37;;;;;;;63.50;32.43;;;;;;;3.51;85.92;98891.91;5033020;28;20194;-66
2020/12/07 01:11:03;;;;;;;66.00;32.77;;;;;;;3.52;86.36;98885.69;5032748;28;20233;-66
2020/12/07 01:13:30;;;;;;;62.67;32.67;;;;;;;3.52;86.45;98877.81;5031372;28;20202;-67
2020/12/07 01:15:56;;;;;;;68.43;33.33;;;;;;;3.53;85.84;98882.13;5033179;28;20600;-66
2020/12/07 01:18:22;;;;;;;64.83;32.43;;;;;;;3.53;85.51;98890.03;5032049;28;20249;-66
2020/12/07 01:20:48;;;;;;;59.40;33.30;;;;;;;3.53;86.11;98877.72;5033121;28;20230;-67
2020/12/07 01:23:14;;;;;;;64.37;32.97;;;;;;;3.53;85.73;98859.28;5032574;28;20202;-67
2020/12/07 01:25:40;;;;;;;68.80;31.27;;;;;;;3.54;86.33;98865.41;5032758;28;20202;-67
2020/12/07 01:28:07;;;;;;;63.70;31.67;;;;;;;3.53;86.39;98869.81;5032866;28;20202;-67
2020/12/07 01:30:33;;;;;;;61.77;30.77;;;;;;;3.54;86.31;98870.66;5032276;28;20250;-66
2020/12/07 01:32:59;;;;;;;61.67;32.17;;;;;;;3.53;86.15;98861.06;5032063;28;20227;-66
2020/12/07 01:35:25;;;;;;;58.83;32.13;;;;;;;3.54;86.29;98862.75;5020218;28;20213;-66
2020/12/07 01:37:51;;;;;;;63.17;32.00;;;;;;;3.52;85.97;98854.97;5023584;28;20233;-66
2020/12/07 01:40:18;;;;;;;62.77;32.60;;;;;;;3.51;85.68;98849.78;5031562;28;20226;-66
2020/12/07 01:42:44;;;;;;;64.57;32.03;;;;;;;3.49;86.04;98845.47;5031722;28;20207;-67
2020/12/07 01:45:10;;;;;;;62.83;31.90;;;;;;;3.49;86.01;98836.72;5032404;28;20296;-67
2020/12/07 01:47:36;;;;;;;62.00;31.33;;;;;;;3.49;85.92;98844.63;5033288;28;20210;-67
2020/12/07 01:50:03;;;;;;;59.97;30.67;;;;;;;3.48;85.78;98832.41;5030396;28;20237;-66
2020/12/07 01:52:30;;;;;;;58.10;30.83;;;;;;;3.49;86.24;98839.38;5017633;28;20694;-66
2020/12/07 01:54:56;;;;;;;61.27;31.53;;;;;;;3.49;86.51;98836.72;5031284;28;20312;-66
2020/12/07 01:57:22;;;;;;;65.57;31.83;;;;;;;3.51;86.14;98839.25;5029719;28;20210;-66
2020/12/07 01:59:48;;;;;;;67.27;32.67;;;;;;;3.50;85.85;98843.69;5031567;28;20229;-66
2020/12/07 02:02:14;;;;;;;58.90;29.80;;;;;;;3.51;86.11;98860.31;5030732;28;20210;-66
2020/12/07 02:04:41;;;;;;;66.00;31.53;;;;;;;3.49;86.20;98866.53;5031763;28;20212;-66
2020/12/07 02:07:07;;;;;;;61.67;31.00;;;;;;;3.49;86.58;98853.38;5023488;28;20207;-66
2020/12/07 02:09:34;;;;;;;53.60;30.63;;;;;;;3.49;86.11;98849.88;5025333;28;20602;-67
2020/12/07 02:12:00;;;;;;;60.47;31.53;;;;;;;3.48;86.31;98851.69;5015984;28;20202;-67
2020/12/07 02:14:26;;;;;;;70.73;32.53;;;;;;;3.48;86.54;98850.81;5031996;28;20214;-67
2020/12/07 02:16:52;;;;;;;58.30;30.77;;;;;;;3.47;85.99;98849.97;5031061;28;20574;-67
2020/12/07 02:19:18;;;;;;;62.00;30.23;;;;;;;3.46;86.55;98832.50;5031078;28;20713;-67
2020/12/07 02:21:45;;;;;;;57.57;30.40;;;;;;;3.47;86.56;98825.44;5030963;28;20671;-67
2020/12/07 02:24:11;;;;;;;62.73;31.23;;;;;;;3.46;86.36;98823.75;5031501;28;20671;-67
2020/12/07 02:26:37;;;;;;;57.30;30.27;;;;;;;3.44;86.76;98823.00;5032299;28;20659;-67
2020/12/07 02:29:03;;;;;;;60.93;31.27;;;;;;;3.44;86.67;98823.00;5020500;28;20214;-67
2020/12/07 02:31:29;;;;;;;65.00;31.73;;;;;;;3.45;86.73;98824.69;5029497;28;20658;-66
2020/12/07 02:33:55;;;;;;;62.33;31.50;;;;;;;3.45;86.12;98807.13;5031786;28;20206;-68
2020/12/07 02:36:21;;;;;;;62.07;31.00;;;;;;;3.46;86.83;98803.56;5030610;28;20683;-68
2020/12/07 02:38:48;;;;;;;62.73;31.67;;;;;;;3.48;86.31;98813.97;5031781;28;20221;-68
2020/12/07 02:41:14;;;;;;;60.33;31.53;;;;;;;3.48;86.73;98812.19;5031360;28;20896;-68
2020/12/07 02:43:40;;;;;;;56.83;30.00;;;;;;;3.49;86.21;98806.00;5028839;28;20213;-68
2020/12/07 02:46:06;;;;;;;59.77;30.70;;;;;;;3.50;86.83;98809.47;5023171;28;20217;-68
2020/12/07 02:48:32;;;;;;;60.43;30.63;;;;;;;3.52;86.93;98814.63;5026410;28;20209;-68
2020/12/07 02:50:58;;;;;;;59.83;31.37;;;;;;;3.54;86.81;98804.88;5031024;28;20230;-67
2020/12/07 02:53:24;;;;;;;62.47;32.07;;;;;;;3.55;86.44;98810.03;5030855;28;20206;-67
2020/12/07 02:55:51;;;;;;;59.13;32.23;;;;;;;3.56;86.68;98818.78;5030406;28;20216;-68
2020/12/07 02:58:17;;;;;;;65.67;31.43;;;;;;;3.56;86.72;98826.66;5030508;28;20244;-67
2020/12/07 03:00:43;;;;;;;55.27;30.23;;;;;;;3.56;86.45;98826.66;5030959;28;20217;-68
2020/12/07 03:03:09;;;;;;;60.43;29.67;;;;;;;3.55;86.24;98817.09;5031085;28;20210;-68
2020/12/07 03:05:35;;;;;;;59.93;31.23;;;;;;;3.55;85.99;98811.81;5030118;28;20681;-68
2020/12/07 03:08:01;;;;;;;59.30;30.40;;;;;;;3.55;86.69;98809.19;5026796;28;20202;-67
2020/12/07 03:10:27;;;;;;;63.07;31.93;;;;;;;3.54;86.74;98818.88;5022181;28;20789;-67
2020/12/07 03:12:54;;;;;;;57.40;30.00;;;;;;;3.52;86.99;98819.91;5024610;28;20202;-67
2020/12/07 03:15:20;;;;;;;61.93;31.90;;;;;;;3.52;86.80;98836.53;5032173;28;20548;-66
2020/12/07 03:17:46;;;;;;;62.30;30.30;;;;;;;3.52;86.34;98851.47;5029460;28;20237;-67
2020/12/07 03:20:12;;;;;;;59.50;30.30;;;;;;;3.51;86.21;98837.47;5030677;28;20228;-67
2020/12/07 03:22:38;;;;;;;66.13;31.70;;;;;;;3.53;86.38;98838.22;5030008;28;20221;-67
2020/12/07 03:25:04;;;;;;;66.20;31.27;;;;;;;3.55;86.36;98836.34;5030581;28;20209;-67
2020/12/07 03:27:30;;;;;;;60.47;32.33;;;;;;;3.56;86.93;98821.41;5032032;28;20212;-67
2020/12/07 03:29:57;;;;;;;60.37;30.47;;;;;;;3.56;86.47;98824.88;5030770;28;20232;-67
2020/12/07 03:32:23;;;;;;;65.33;31.23;;;;;;;3.57;86.22;98828.34;5030289;28;20206;-67
2020/12/07 03:34:49;;;;;;;59.00;30.53;;;;;;;3.57;86.81;98809.94;5027032;28;20223;-67
2020/12/07 03:37:15;;;;;;;62.00;31.17;;;;;;;3.57;86.17;98807.31;5021887;28;20203;-67
2020/12/07 03:39:41;;;;;;;56.57;29.33;;;;;;;3.57;86.53;98805.50;5028751;28;20230;-66
2020/12/07 03:42:07;;;;;;;61.10;30.10;;;;;;;3.58;86.58;98785.31;5025285;28;20208;-67
2020/12/07 03:44:33;;;;;;;60.07;30.87;;;;;;;3.58;86.45;98795.84;5031086;28;20212;-66
2020/12/07 03:47:00;;;;;;;59.03;31.80;;;;;;;3.57;86.02;98794.16;5030253;28;20206;-67
2020/12/07 03:49:26;;;;;;;61.57;31.17;;;;;;;3.58;86.94;98799.31;5031132;28;20238;-68
2020/12/07 03:51:52;;;;;;;63.03;31.87;;;;;;;3.58;86.25;98788.78;5031848;28;20198;-67
2020/12/07 03:54:18;;;;;;;66.67;31.27;;;;;;;3.58;86.82;98803.72;5028314;28;20208;-67
2020/12/07 03:56:44;;;;;;;65.07;32.30;;;;;;;3.57;86.64;98813.41;5029802;28;20202;-67
2020/12/07 03:59:10;;;;;;;62.13;30.17;;;;;;;3.57;86.77;98828.34;5028164;28;20226;-67
2020/12/07 04:01:37;;;;;;;59.77;29.73;;;;;;;3.57;86.19;98831.84;5029854;28;20212;-67
2020/12/07 04:04:07;;;;;;;56.07;30.40;;;;;;;3.59;86.54;98831.72;5028467;28;20207;-67
2020/12/07 04:06:35;;;;;;;66.00;33.20;;;;;;;3.58;86.77;98817.75;5033135;28;20214;-67
2020/12/07 04:09:01;;;;;;;54.67;29.03;;;;;;;3.60;86.37;98820.25;5034083;28;20240;-66
2020/12/07 04:11:27;;;;;;;59.50;30.63;;;;;;;3.59;86.89;98805.38;5034082;28;20240;-66
2020/12/07 04:13:53;;;;;;;62.47;31.50;;;;;;;3.61;86.60;98803.50;5034185;28;20207;-66
2020/12/07 04:16:19;;;;;;;56.43;28.23;;;;;;;3.61;86.34;98788.56;5034131;28;20199;-66
2020/12/07 04:18:45;;;;;;;63.10;31.20;;;;;;;3.61;86.36;98783.28;5034304;28;20229;-65
2020/12/07 04:21:12;;;;;;;58.90;30.60;;;;;;;3.62;86.51;98784.97;5033608;28;20217;-67
2020/12/07 04:23:39;;;;;;;60.20;31.13;;;;;;;3.62;86.78;98790.25;5033256;28;20301;-66
2020/12/07 04:26:05;;;;;;;59.23;30.73;;;;;;;3.62;86.91;98784.13;5031817;28;20297;-66
2020/12/07 04:28:31;;;;;;;61.63;31.60;;;;;;;3.65;86.38;98778.69;5032875;28;20202;-67
2020/12/07 04:30:57;;;;;;;59.63;29.80;;;;;;;3.64;86.87;98783.09;5033459;28;20233;-66
2020/12/07 04:33:23;;;;;;;63.20;31.97;;;;;;;3.64;86.64;98777.84;5032289;28;20289;-66
2020/12/07 04:35:49;;;;;;;61.97;31.27;;;;;;;3.62;86.25;98771.81;5033285;28;20236;-67
2020/12/07 04:38:17;;;;;;;65.57;32.20;;;;;;;3.62;86.46;98776.25;5033723;28;20230;-67
2020/12/07 04:40:43;;;;;;;64.27;31.97;;;;;;;3.64;86.63;98782.25;5032674;28;20238;-68
2020/12/07 04:43:09;;;;;;;59.07;29.83;;;;;;;3.62;86.23;98768.34;5032323;28;20198;-67
2020/12/07 04:45:36;;;;;;;68.47;32.90;;;;;;;3.62;86.75;98774.44;5033190;28;20230;-67
2020/12/07 04:48:02;;;;;;;62.20;31.10;;;;;;;3.62;86.87;98774.44;5033294;28;20214;-66
2020/12/07 04:50:30;;;;;;;63.43;32.50;;;;;;;3.62;86.05;98771.81;5033536;28;20240;-66
2020/12/07 04:52:56;;;;;;;62.83;30.17;;;;;;;3.64;86.11;98769.09;5032050;28;20956;-66
2020/12/07 04:55:24;;;;;;;65.37;32.33;;;;;;;3.65;86.72;98765.53;5033203;28;20210;-66
2020/12/07 04:57:51;;;;;;;69.93;33.67;;;;;;;3.66;86.85;98765.41;5032478;28;20309;-67
2020/12/07 05:00:21;;;;;;;68.80;33.63;;;;;;;3.67;87.02;98761.00;5033564;28;20226;-66
2020/12/07 05:02:51;;;;;;;68.20;33.97;;;;;;;3.68;86.66;98765.31;5026951;28;20214;-66
2020/12/07 05:05:17;;;;;;;63.07;32.23;;;;;;;3.69;86.29;98785.44;5031305;28;20202;-66
2020/12/07 05:07:48;;;;;;;69.60;31.57;;;;;;;3.69;86.92;98775.75;5032494;28;20216;-67
2020/12/07 05:10:17;;;;;;;63.60;33.30;;;;;;;3.70;86.93;98761.66;5032271;28;20222;-66
2020/12/07 05:12:47;;;;;;;62.23;31.00;;;;;;;3.69;86.79;98761.75;5032602;28;20754;-67
2020/12/07 05:15:15;;;;;;;61.57;30.83;;;;;;;3.69;86.37;98764.38;5031145;28;20206;-66
2020/12/07 05:17:42;;;;;;;59.33;31.17;;;;;;;3.68;87.01;98775.84;5029079;28;20325;-66
2020/12/07 05:20:08;;;;;;;60.20;31.03;;;;;;;3.68;86.49;98779.34;5031953;28;20228;-65
2020/12/07 05:22:35;;;;;;;58.63;30.30;;;;;;;3.68;86.83;98779.34;5029551;28;20198;-66
2020/12/07 05:25:04;;;;;;;61.67;31.23;;;;;;;3.69;86.75;98778.41;5033032;28;20210;-66
2020/12/07 05:27:31;;;;;;;63.73;30.40;;;;;;;3.71;86.48;98786.19;5029309;28;20221;-66
2020/12/07 05:30:07;;;;;;;63.27;32.07;;;;;;;3.71;87.06;98796.72;5030615;28;20226;-66
2020/12/07 05:32:34;;;;;;;57.47;30.60;;;;;;;3.70;87.20;98797.66;5026982;28;20201;-66
2020/12/07 05:35:01;;;;;;;62.40;32.10;;;;;;;3.70;86.67;98801.16;5030159;28;20198;-66
2020/12/07 05:37:27;;;;;;;58.97;31.37;;;;;;;3.71;86.62;98788.81;5031110;28;20206;-66
2020/12/07 05:39:54;;;;;;;64.13;30.50;;;;;;;3.71;87.40;98794.94;5023755;28;20702;-66
2020/12/07 05:42:23;;;;;;;58.90;29.67;;;;;;;3.74;86.86;98809.69;5025695;28;20590;-65
2020/12/07 05:44:52;;;;;;;62.90;32.93;;;;;;;3.74;86.86;98820.22;5031905;28;20210;-66
2020/12/07 05:47:22;;;;;;;62.23;31.07;;;;;;;3.73;86.47;98814.13;5031866;28;20210;-66
2020/12/07 05:49:50;;;;;;;65.63;31.80;;;;;;;3.74;86.74;98801.78;5047524;23;20240;-68
2020/12/07 05:52:25;;;;;;;68.63;31.03;;;;;;;3.73;87.36;98786.94;5048264;28;20201;-67
2020/12/07 05:54:54;;;;;;;67.37;32.10;;;;;;;3.74;86.59;98784.22;5044489;28;20613;-68
2020/12/07 05:57:21;;;;;;;65.47;31.63;;;;;;;3.75;87.09;98785.06;5042846;28;20263;-67
2020/12/07 05:59:55;;;;;;;66.90;34.27;;;;;;;3.76;87.08;98789.38;5045465;28;20312;-68
2020/12/07 06:02:22;;;;;;;73.30;34.77;;;;;;;3.76;86.93;98792.00;5034035;28;20411;-68
2020/12/07 06:04:48;;;;;;;77.90;35.27;;;;;;;3.77;86.97;98793.66;5035184;28;20304;-68
2020/12/07 06:07:19;;;;;;;63.53;34.00;;;;;;;3.77;86.93;98794.50;5028443;28;20206;-69
2020/12/07 06:09:47;;;;;;;70.17;33.37;;;;;;;3.77;86.77;98805.06;5031361;28;20737;-68
2020/12/07 06:12:19;;;;;;;73.53;36.03;;;;;;;3.78;86.89;98812.00;5025214;28;20206;-68
2020/12/07 06:14:46;;;;;;;66.80;33.33;;;;;;;3.80;87.33;98809.28;5028666;28;20222;-68
2020/12/07 06:17:22;;;;;;;72.70;34.77;;;;;;;3.81;86.74;98797.81;5024037;28;20206;-67
2020/12/07 06:19:52;;;;;;;67.13;32.97;;;;;;;3.82;87.35;98813.50;5028268;28;20254;-68
2020/12/07 06:22:20;;;;;;;63.00;34.07;;;;;;;3.82;86.83;98820.56;5034142;28;20207;-68
2020/12/07 06:24:49;;;;;;;76.70;35.50;;;;;;;3.83;87.31;98820.47;5037462;28;20306;-68
2020/12/07 06:27:16;;;;;;;70.87;32.50;;;;;;;3.83;87.46;98815.19;5031478;28;20206;-68
2020/12/07 06:29:57;;;;;;;70.93;33.10;;;;;;;3.84;87.19;98818.66;5027361;28;20276;-69
2020/12/07 06:32:23;;;;;;;69.60;33.53;;;;;;;3.85;87.36;98823.00;5033247;28;20206;-69
2020/12/07 06:34:57;;;;;;;69.00;33.60;;;;;;;3.87;86.75;98826.38;5041075;28;20206;-68
2020/12/07 06:37:25;;;;;;;69.97;33.50;;;;;;;3.89;87.46;98818.38;5034014;28;20210;-68
2020/12/07 06:39:52;;;;;;;69.20;33.17;;;;;;;3.91;87.22;98821.75;5042064;28;20226;-69
2020/12/07 06:42:19;;;;;;;65.43;31.30;;;;;;;3.94;86.96;98834.75;5040377;28;20292;-69
2020/12/07 06:44:46;;;;;;;63.87;32.33;;;;;;;3.96;87.27;98830.19;5044976;28;20202;-69
2020/12/07 06:47:17;;;;;;;65.03;31.43;;;;;;;3.99;87.18;98833.47;5034465;28;20201;-68
2020/12/07 06:49:53;;;;;;;60.60;31.00;;;;;;;4.01;86.80;98849.19;5035473;28;20794;-67
2020/12/07 06:52:22;;;;;;;64.80;32.07;;;;;;;4.02;87.64;98849.06;5026835;28;20197;-69
2020/12/07 06:55:05;;;;;;;63.47;31.63;;;;;;;4.04;87.16;98848.97;5022223;28;20211;-69
2020/12/07 06:57:33;;;;;;;59.60;30.93;;;;;;;4.04;87.13;98847.19;5013422;28;20289;-68
2020/12/07 07:00:07;;;;;;;64.20;32.60;;;;;;;4.07;87.71;98852.25;5020085;28;20230;-70
2020/12/07 07:02:34;;;;;;;66.03;32.83;;;;;;;4.07;87.52;98857.53;5022090;28;20206;-69
2020/12/07 07:05:01;;;;;;;70.10;32.53;;;;;;;4.09;87.22;98860.91;5018216;28;20342;-69
2020/12/07 07:07:30;;;;;;;76.90;35.83;;;;;;;4.08;87.25;98850.47;5020808;28;20199;-69
2020/12/07 07:09:56;;;;;;;51.10;26.73;;;;;;;4.09;87.28;98836.38;5020857;28;20231;-69
2020/12/07 07:12:23;;;;;;;57.07;28.63;;;;;;;4.09;86.95;98825.81;5025229;28;20209;-68
2020/12/07 07:14:53;;;;;;;51.27;26.93;;;;;;;4.09;86.97;98831.09;5020408;28;20221;-67
2020/12/07 07:17:19;;;;;;;48.20;26.40;;;;;;;4.09;87.16;98845.13;5039849;28;20210;-68
2020/12/07 07:19:45;;;;;;;49.33;25.53;;;;;;;4.08;87.22;98845.22;5020950;28;20317;-69
2020/12/07 07:22:12;;;;;;;44.73;25.13;;;;;;;4.08;87.37;98858.38;5022509;28;20282;-67
2020/12/07 07:24:47;;;;;;;43.87;24.83;;;;;;;4.07;87.22;98854.91;5025145;28;20214;-69
2020/12/07 07:29:57;;;;;;;31.30;19.80;;;;;;;4.08;87.25;98866.28;5026925;28;20248;-69
2020/12/07 07:32:23;;;;;;;29.03;17.30;;;;;;;4.08;87.44;98866.28;5020441;28;20289;-69
2020/12/07 07:34:50;;;;;;;25.87;17.03;;;;;;;4.06;87.23;98874.28;5022009;28;20210;-69
2020/12/07 07:37:17;;;;;;;24.87;16.03;;;;;;;4.07;87.22;98883.03;5025005;28;20217;-69
2020/12/07 07:39:45;;;;;;;22.33;14.50;;;;;;;4.05;87.02;98880.50;5021035;28;20240;-69
2020/12/07 07:42:13;;;;;;;16.47;12.27;;;;;;;4.05;87.50;98883.13;5031223;28;20233;-69
2020/12/07 07:44:41;;;;;;;14.17;11.30;;;;;;;4.04;87.32;98901.66;5025222;28;20205;-68
2020/12/07 07:47:12;;;;;;;15.93;11.87;;;;;;;4.04;86.98;98913.03;5024451;28;20677;-69
2020/12/07 08:06:02;;;;;;;10.40;8.07;;;;;;;4.00;86.93;98906.28;5030918;28;20259;-68
2020/12/07 08:17:48;;;;;;;11.93;7.67;;;;;;;4.06;86.87;98934.03;5034603;28;20336;-69
2020/12/07 08:20:16;;;;;;;10.30;7.13;;;;;;;4.08;86.67;98942.69;5024357;28;20230;-68
2020/12/07 08:22:54;;;;;;;10.83;8.97;;;;;;;4.10;86.61;98940.78;5033581;28;20293;-70
2020/12/07 08:25:20;;;;;;;9.47;7.20;;;;;;;4.11;86.96;98930.16;5029148;28;20197;-68
2020/12/07 08:27:48;;;;;;;10.80;7.77;;;;;;;4.12;86.80;98937.09;5020435;28;20293;-69
2020/12/07 08:30:14;;;;;;;10.20;7.80;;;;;;;4.14;86.34;98944.91;5034644;28;20230;-69
2020/12/07 08:32:40;;;;;;;11.03;7.73;;;;;;;4.12;86.51;98973.97;5033975;28;20214;-69
2020/12/07 08:35:12;;;;;;;8.57;7.30;;;;;;;4.14;86.20;98998.44;5034722;28;20240;-69
2020/12/07 08:37:42;;;;;;;11.63;7.63;;;;;;;4.15;86.39;98979.06;5034501;28;20212;-69
2020/12/07 08:40:08;;;;;;;11.50;7.57;;;;;;;4.17;86.15;98982.44;5033045;28;20298;-68
2020/12/07 08:42:34;;;;;;;8.93;7.07;;;;;;;4.21;85.88;98974.34;5033216;28;20245;-68
2020/12/07 08:45:01;;;;;;;9.97;7.37;;;;;;;4.21;85.63;98988.38;5030467;28;20198;-69
2020/12/07 08:47:27;;;;;;;11.43;9.20;;;;;;;4.22;85.38;98992.69;5014310;28;20265;-68
2020/12/07 08:49:53;;;;;;;9.90;8.10;;;;;;;4.25;85.54;98996.94;5016680;28;20234;-69
2020/12/07 08:52:19;;;;;;;9.07;7.60;;;;;;;4.27;85.78;98998.53;5038059;28;20292;-67
2020/12/07 08:54:45;;;;;;;9.20;7.17;;;;;;;4.30;85.71;98992.22;5036396;28;20221;-68
2020/12/07 08:57:12;;;;;;;11.13;8.63;;;;;;;4.33;85.24;98999.91;5036404;28;20259;-67
2020/12/07 08:59:38;;;;;;;11.07;8.40;;;;;;;4.35;85.62;99003.28;5041890;28;20312;-67
2020/12/07 09:02:05;;;;;;;10.63;8.57;;;;;;;4.36;85.44;99007.63;5039379;28;20202;-67
2020/12/07 09:04:31;;;;;;;11.33;8.83;;;;;;;4.39;85.20;99007.44;5044328;28;20218;-67
2020/12/07 09:06:57;;;;;;;12.20;8.87;;;;;;;4.42;85.07;99009.88;5045660;28;20634;-67
2020/12/07 09:09:23;;;;;;;11.83;9.73;;;;;;;4.43;84.76;99022.97;5046411;28;20237;-67
2020/12/07 09:11:49;;;;;;;12.70;9.50;;;;;;;4.44;85.16;99034.34;5032894;28;20233;-67
2020/12/07 09:14:15;;;;;;;10.03;8.90;;;;;;;4.45;85.27;99025.50;5033665;28;20206;-68
2020/12/07 09:16:42;;;;;;;11.67;8.50;;;;;;;4.44;84.90;99016.75;5033919;28;20301;-67
2020/12/07 09:19:09;;;;;;;11.67;8.23;;;;;;;4.44;84.54;99019.38;5018532;28;20230;-67
2020/12/07 09:21:35;;;;;;;11.00;8.77;;;;;;;4.43;85.08;99012.41;5033119;28;20226;-67
2020/12/07 09:24:01;;;;;;;10.20;8.00;;;;;;;4.45;85.03;99020.22;5030025;28;20203;-68
2020/12/07 09:26:28;;;;;;;9.63;8.33;;;;;;;4.45;84.78;99017.59;5032962;28;20211;-68
2020/12/07 09:28:54;;;;;;;11.27;8.87;;;;;;;4.44;84.74;99029.06;5033541;28;20325;-68
2020/12/07 09:31:20;;;;;;;11.33;8.90;;;;;;;4.44;84.50;99021.16;5033011;28;20238;-68
2020/12/07 09:33:47;;;;;;;10.83;8.27;;;;;;;4.47;85.06;99018.34;5032735;28;20237;-68
2020/12/07 09:36:14;;;;;;;9.03;7.10;;;;;;;4.48;84.76;99027.91;5033380;28;20213;-68
2020/12/07 09:38:40;;;;;;;10.13;8.37;;;;;;;4.50;84.60;99041.84;5033852;28;20280;-68
2020/12/07 09:41:07;;;;;;;9.00;8.07;;;;;;;4.48;84.14;99041.94;5032475;28;20710;-67
2020/12/07 09:43:34;;;;;;;10.93;7.87;;;;;;;4.50;84.28;99031.28;5032033;28;20289;-67
2020/12/07 09:46:00;;;;;;;11.17;7.80;;;;;;;4.48;84.38;99038.44;5033054;28;20207;-68
2020/12/07 09:48:26;;;;;;;9.50;7.93;;;;;;;4.47;84.08;99042.91;5028828;28;20217;-67
2020/12/07 09:50:52;;;;;;;8.30;7.20;;;;;;;4.48;84.54;99044.56;5022451;28;20280;-66
2020/12/07 09:53:19;;;;;;;9.27;7.23;;;;;;;4.48;84.04;99041.94;5031765;28;20293;-66
2020/12/07 09:55:46;;;;;;;7.97;7.17;;;;;;;4.48;84.00;99041.09;5032943;28;20210;-67
2020/12/07 09:58:13;;;;;;;8.57;6.70;;;;;;;4.48;83.91;99054.28;5031886;28;20297;-67
2020/12/07 10:00:39;;;;;;;10.03;7.40;;;;;;;4.49;83.76;99048.91;5018571;28;20230;-67
2020/12/07 10:03:05;;;;;;;8.47;6.90;;;;;;;4.50;84.23;99049.75;5018694;28;20811;-67
2020/12/07 10:05:31;;;;;;;7.90;6.50;;;;;;;4.49;83.94;99053.34;5032096;28;20688;-67
2020/12/07 10:07:57;;;;;;;8.40;6.73;;;;;;;4.50;83.65;99065.56;5034521;28;20202;-67
2020/12/07 10:10:24;;;;;;;8.10;7.13;;;;;;;4.49;84.03;99062.09;5033638;28;20268;-67
2020/12/07 10:12:50;;;;;;;8.47;7.53;;;;;;;4.50;83.81;99074.31;5031903;28;20249;-66
2020/12/07 10:15:16;;;;;;;7.87;6.63;;;;;;;4.49;83.81;99066.50;5026334;28;20729;-67
2020/12/07 10:17:43;;;;;;;10.87;6.97;;;;;;;4.49;83.57;99075.25;5032485;28;20690;-67
2020/12/07 10:20:09;;;;;;;9.30;6.33;;;;;;;4.49;83.86;99072.63;5019164;28;20842;-67
2020/12/07 10:22:35;;;;;;;7.40;6.00;;;;;;;4.49;83.66;99083.19;5030362;28;20671;-68
2020/12/07 10:25:01;;;;;;;6.40;5.80;;;;;;;4.50;83.60;99081.38;5032265;28;20205;-69
2020/12/07 10:27:28;;;;;;;8.07;6.37;;;;;;;4.52;83.82;99090.91;5019655;28;20746;-67
2020/12/07 10:29:54;;;;;;;7.97;6.47;;;;;;;4.53;83.29;99083.84;5030754;28;20588;-67
2020/12/07 10:32:20;;;;;;;6.80;5.70;;;;;;;4.56;83.66;99080.16;5025400;28;20206;-67
2020/12/07 10:34:47;;;;;;;6.90;6.23;;;;;;;4.56;83.75;99085.44;5023515;28;20583;-68
2020/12/07 10:37:15;;;;;;;5.97;4.80;;;;;;;4.56;83.68;99093.34;5032261;28;20210;-67
2020/12/07 10:39:41;;;;;;;6.33;5.50;;;;;;;4.55;83.51;99076.69;5017567;28;20230;-67
2020/12/07 10:42:07;;;;;;;6.13;5.53;;;;;;;4.58;83.53;99088.81;5023958;28;20663;-66
2020/12/07 10:44:34;;;;;;;6.10;5.50;;;;;;;4.57;83.36;99085.34;5032259;28;20565;-67
2020/12/07 10:47:00;;;;;;;6.70;6.10;;;;;;;4.56;83.24;99102.09;5031391;28;20732;-67
2020/12/07 10:49:26;;;;;;;5.87;5.20;;;;;;;4.59;83.11;99098.44;5031899;28;20671;-67
2020/12/07 10:51:53;;;;;;;5.73;5.13;;;;;;;4.58;83.17;99105.50;5016149;28;20646;-67
2020/12/07 10:54:19;;;;;;;5.30;4.77;;;;;;;4.60;83.08;99118.56;5031750;28;20686;-67
2020/12/07 10:56:45;;;;;;;6.13;5.53;;;;;;;4.61;83.03;99112.38;5031047;28;20712;-67
2020/12/07 10:59:11;;;;;;;6.53;5.93;;;;;;;4.61;82.66;99117.63;5030015;28;20234;-67
2020/12/07 11:01:38;;;;;;;5.80;5.30;;;;;;;4.61;82.45;99126.41;5030855;28;20688;-68
2020/12/07 11:04:04;;;;;;;5.83;5.33;;;;;;;4.62;82.52;99122.81;5032019;28;20237;-67
2020/12/07 11:06:33;;;;;;;5.93;5.17;;;;;;;4.63;82.73;99121.88;5031665;28;20632;-67
2020/12/07 11:09:04;;;;;;;5.17;4.67;;;;;;;4.65;82.78;99127.91;5030638;28;20198;-66
2020/12/07 11:11:30;;;;;;;6.50;4.47;;;;;;;4.66;82.69;99124.28;5026090;28;20717;-68
2020/12/07 11:13:56;;;;;;;5.83;4.97;;;;;;;4.68;82.70;99130.31;5044560;28;20212;-67
2020/12/07 11:16:24;;;;;;;6.70;6.10;;;;;;;4.70;82.72;99133.72;5031092;28;20201;-66
2020/12/07 11:18:51;;;;;;;6.00;5.47;;;;;;;4.72;82.01;99129.19;5030200;28;20227;-68
2020/12/07 11:21:17;;;;;;;6.33;5.73;;;;;;;4.75;82.48;99130.78;5031365;28;20218;-68
2020/12/07 11:23:46;;;;;;;5.23;4.73;;;;;;;4.77;82.25;99129.75;5030664;28;20228;-69
2020/12/07 11:26:13;;;;;;;4.37;3.97;;;;;;;4.77;82.17;99129.75;5031328;28;20289;-68
2020/12/07 11:28:40;;;;;;;4.27;3.97;;;;;;;4.79;81.97;99146.31;5031553;28;20206;-67
2020/12/07 11:31:08;;;;;;;4.77;4.37;;;;;;;4.79;81.85;99142.84;5040969;28;20222;-67
2020/12/07 11:33:34;;;;;;;5.37;4.87;;;;;;;4.81;81.96;99151.50;5040903;28;20201;-67
2020/12/07 11:36:02;;;;;;;5.43;4.87;;;;;;;4.81;81.77;99143.59;5042351;28;20206;-67
2020/12/07 11:38:32;;;;;;;6.00;5.33;;;;;;;4.82;81.87;99140.84;5038934;28;20204;-67
2020/12/07 11:41:14;;;;;;;5.37;4.97;;;;;;;4.83;81.67;99146.97;5030449;28;20226;-67
2020/12/07 11:43:47;;;;;;;4.80;4.40;;;;;;;4.85;81.50;99143.28;5043220;28;20202;-67
2020/12/07 11:46:18;;;;;;;5.63;5.13;;;;;;;4.86;81.47;99144.13;5040627;28;20621;-68
2020/12/07 11:48:44;;;;;;;4.87;4.40;;;;;;;4.86;81.45;99150.25;5039491;28;20199;-71
2020/12/07 11:51:11;;;;;;;4.80;4.40;;;;;;;4.87;81.43;99144.03;5038794;28;20239;-68
2020/12/07 11:53:37;;;;;;;4.80;4.37;;;;;;;4.89;81.47;99146.56;5035436;28;20203;-67
2020/12/07 11:56:03;;;;;;;5.10;4.70;;;;;;;4.91;81.72;99143.84;5038531;28;20554;-68